createdAt,value
2018-04-29T00:00:07.130Z,1006.68
2018-04-29T00:01:07.095Z,1006.67
2018-04-29T00:02:07.044Z,1006.64
2018-04-29T00:03:07.001Z,1006.59
2018-04-29T00:04:06.957Z,1006.54
2018-04-29T00:05:06.914Z,1006.48
2018-04-29T00:06:06.872Z,1006.44
2018-04-29T00:07:06.828Z,1006.38
2018-04-29T00:08:06.786Z,1006.34
2018-04-29T00:09:06.741Z,1006.28
2018-04-29T00:10:06.698Z,1006.22
2018-04-29T00:11:06.656Z,1006.16
2018-04-29T00:12:06.612Z,1006.20
2018-04-29T00:13:06.570Z,1006.16
2018-04-29T00:14:06.526Z,1006.16
2018-04-29T00:15:06.483Z,1006.17
2018-04-29T00:16:06.446Z,1006.14
2018-04-29T00:17:06.401Z,1006.21
2018-04-29T00:18:06.353Z,1006.25
2018-04-29T00:19:06.310Z,1006.25
2018-04-29T00:20:06.266Z,1006.32
2018-04-29T00:21:06.223Z,1006.33
2018-04-29T00:22:06.180Z,1006.39
2018-04-29T00:23:06.138Z,1006.40
2018-04-29T00:24:06.101Z,1006.45
2018-04-29T00:25:06.050Z,1006.46
2018-04-29T00:26:06.008Z,1006.43
2018-04-29T00:27:06.016Z,1006.43
2018-04-29T00:28:05.920Z,1006.41
2018-04-29T00:29:05.877Z,1006.39
2018-04-29T00:30:05.843Z,1006.36
2018-04-29T00:31:05.792Z,1006.40
2018-04-29T00:32:05.747Z,1006.42
2018-04-29T00:33:05.705Z,1006.45
2018-04-29T00:34:05.675Z,1006.50
2018-04-29T00:35:05.619Z,1006.45
2018-04-29T00:36:05.576Z,1006.44
2018-04-29T00:37:05.532Z,1006.46
2018-04-29T00:38:05.489Z,1006.48
2018-04-29T00:39:05.446Z,1006.52
2018-04-29T00:40:05.409Z,1006.52
2018-04-29T00:41:05.358Z,1006.50
2018-04-29T00:42:05.315Z,1006.55
2018-04-29T00:43:05.274Z,1006.55
2018-04-29T00:44:05.229Z,1006.60
2018-04-29T00:45:05.194Z,1006.59
2018-04-29T00:46:05.143Z,1006.60
2018-04-29T00:47:05.100Z,1006.66
2018-04-29T00:48:05.059Z,1006.67
2018-04-29T00:49:05.016Z,1006.67
2018-04-29T00:50:04.970Z,1006.71
2018-04-29T00:51:04.927Z,1006.67
2018-04-29T00:52:04.883Z,1006.68
2018-04-29T00:53:04.839Z,1006.77
2018-04-29T00:54:04.797Z,1006.81
2018-04-29T00:55:04.754Z,1006.76
2018-04-29T00:56:04.715Z,1006.81
2018-04-29T00:57:04.667Z,1006.81
2018-04-29T00:58:04.624Z,1006.84
2018-04-29T00:59:04.623Z,1006.85
2018-04-29T01:00:04.537Z,1006.86
2018-04-29T01:01:04.494Z,1006.86
2018-04-29T01:02:04.454Z,1006.86
2018-04-29T01:03:04.408Z,1006.89
2018-04-29T01:04:04.365Z,1006.91
2018-04-29T01:05:04.321Z,1006.90
2018-04-29T01:06:04.380Z,1006.90
2018-04-29T01:07:04.234Z,1006.90
2018-04-29T01:08:04.190Z,1006.86
2018-04-29T01:09:04.147Z,1006.83
2018-04-29T01:10:04.105Z,1006.83
2018-04-29T01:11:04.061Z,1006.89
2018-04-29T01:12:04.016Z,1006.84
2018-04-29T01:13:03.973Z,1006.86
2018-04-29T01:14:03.930Z,1006.89
2018-04-29T01:15:03.887Z,1006.92
2018-04-29T01:16:03.842Z,1006.93
2018-04-29T01:17:03.799Z,1006.94
2018-04-29T01:18:03.756Z,1006.94
2018-04-29T01:19:03.714Z,1006.92
2018-04-29T01:20:03.668Z,1006.95
2018-04-29T01:21:03.625Z,1006.94
2018-04-29T01:22:03.586Z,1006.95
2018-04-29T01:23:03.540Z,1007.02
2018-04-29T01:24:03.494Z,1007.00
2018-04-29T01:25:03.451Z,1006.99
2018-04-29T01:26:03.407Z,1007.02
2018-04-29T01:27:03.364Z,1007.01
2018-04-29T01:28:03.320Z,1007.04
2018-04-29T01:29:03.276Z,1007.03
2018-04-29T01:30:03.236Z,1007.02
2018-04-29T01:31:03.190Z,1007.05
2018-04-29T01:32:03.145Z,1007.05
2018-04-29T01:33:03.103Z,1007.04
2018-04-29T01:34:03.059Z,1007.04
2018-04-29T01:35:03.024Z,1007.02
2018-04-29T01:36:02.971Z,1007.03
2018-04-29T01:37:02.928Z,1007.04
2018-04-29T01:38:02.885Z,1007.03
2018-04-29T01:39:02.841Z,1007.00
2018-04-29T01:40:02.799Z,1007.03
2018-04-29T01:41:02.754Z,1007.01
2018-04-29T01:42:02.711Z,1007.01
2018-04-29T01:43:02.668Z,1007.02
2018-04-29T01:44:02.623Z,1007.02
2018-04-29T01:45:02.580Z,1006.97
2018-04-29T01:46:02.537Z,1007.01
2018-04-29T01:47:02.494Z,1007.04
2018-04-29T01:48:02.449Z,1007.02
2018-04-29T01:49:02.406Z,1007.05
2018-04-29T01:50:02.363Z,1007.03
2018-04-29T01:51:02.319Z,1006.99
2018-04-29T01:52:02.275Z,1006.98
2018-04-29T01:53:02.232Z,1006.97
2018-04-29T01:54:02.193Z,1006.98
2018-04-29T01:55:02.146Z,1006.94
2018-04-29T01:56:02.110Z,1006.94
2018-04-29T01:57:02.059Z,1006.95
2018-04-29T01:58:02.015Z,1006.91
2018-04-29T01:59:01.980Z,1006.93
2018-04-29T02:00:01.928Z,1006.94
2018-04-29T02:01:01.885Z,1006.92
2018-04-29T02:02:01.841Z,1006.92
2018-04-29T02:03:01.798Z,1006.90
2018-04-29T02:04:01.754Z,1006.91
2018-04-29T02:05:01.710Z,1006.93
2018-04-29T02:06:01.667Z,1006.90
2018-04-29T02:07:01.624Z,1006.96
2018-04-29T02:08:01.579Z,1006.91
2018-04-29T02:09:01.542Z,1006.89
2018-04-29T02:10:01.494Z,1006.93
2018-04-29T02:11:01.452Z,1006.87
2018-04-29T02:12:01.406Z,1006.89
2018-04-29T02:13:01.365Z,1006.88
2018-04-29T02:14:01.319Z,1006.84
2018-04-29T02:15:01.276Z,1006.86
2018-04-29T02:16:01.232Z,1006.88
2018-04-29T02:17:01.189Z,1006.90
2018-04-29T02:18:01.145Z,1006.89
2018-04-29T02:19:01.102Z,1006.91
2018-04-29T02:20:01.057Z,1006.88
2018-04-29T02:21:01.014Z,1006.83
2018-04-29T02:22:00.971Z,1006.83
2018-04-29T02:23:00.927Z,1006.85
2018-04-29T02:24:00.883Z,1006.86
2018-04-29T02:25:00.840Z,1006.90
2018-04-29T02:26:00.802Z,1006.93
2018-04-29T02:27:00.753Z,1006.96
2018-04-29T02:28:00.708Z,1007.00
2018-04-29T02:29:00.665Z,1006.94
2018-04-29T02:30:00.628Z,1006.94
2018-04-29T02:31:00.578Z,1006.94
2018-04-29T02:32:00.539Z,1006.95
2018-04-29T02:33:00.490Z,1006.98
2018-04-29T02:34:00.446Z,1006.99
2018-04-29T02:35:00.402Z,1006.98
2018-04-29T02:36:00.358Z,1007.02
2018-04-29T02:37:00.315Z,1007.01
2018-04-29T02:38:00.272Z,1006.98
2018-04-29T02:39:00.228Z,1006.98
2018-04-29T02:40:00.183Z,1006.98
2018-04-29T02:41:00.143Z,1006.93
2018-04-29T02:42:00.096Z,1006.91
2018-04-29T02:43:00.052Z,1006.92
2018-04-29T02:44:00.012Z,1006.86
2018-04-29T02:44:59.964Z,1006.94
2018-04-29T02:45:59.921Z,1006.94
2018-04-29T02:46:59.876Z,1006.95
2018-04-29T02:47:59.831Z,1006.92
2018-04-29T02:48:59.788Z,1006.89
2018-04-29T02:49:59.744Z,1006.88
2018-04-29T02:50:59.700Z,1006.88
2018-04-29T02:51:59.656Z,1006.88
2018-04-29T02:52:59.612Z,1006.83
2018-04-29T02:53:59.568Z,1006.82
2018-04-29T02:54:59.524Z,1006.83
2018-04-29T02:55:59.480Z,1006.82
2018-04-29T02:56:59.436Z,1006.81
2018-04-29T02:57:59.395Z,1006.82
2018-04-29T02:58:59.348Z,1006.83
2018-04-29T02:59:59.303Z,1006.89
2018-04-29T03:00:59.260Z,1006.90
2018-04-29T03:01:59.219Z,1006.95
2018-04-29T03:02:59.173Z,1006.99
2018-04-29T03:03:59.128Z,1007.02
2018-04-29T03:04:59.084Z,1006.98
2018-04-29T03:05:59.040Z,1006.98
2018-04-29T03:06:58.997Z,1007.01
2018-04-29T03:07:58.951Z,1006.95
2018-04-29T03:08:58.907Z,1006.94
2018-04-29T03:09:58.864Z,1006.85
2018-04-29T03:10:58.831Z,1006.82
2018-04-29T03:11:58.775Z,1006.81
2018-04-29T03:12:58.732Z,1006.79
2018-04-29T03:13:58.688Z,1006.82
2018-04-29T03:14:58.644Z,1006.78
2018-04-29T03:15:58.599Z,1006.79
2018-04-29T03:16:58.555Z,1006.80
2018-04-29T03:17:58.512Z,1006.77
2018-04-29T03:18:58.468Z,1006.80
2018-04-29T03:19:58.422Z,1006.72
2018-04-29T03:20:58.379Z,1006.75
2018-04-29T03:21:58.385Z,1006.70
2018-04-29T03:22:58.291Z,1006.74
2018-04-29T03:23:58.251Z,1006.76
2018-04-29T03:24:58.202Z,1006.78
2018-04-29T03:25:58.159Z,1006.78
2018-04-29T03:26:58.115Z,1006.79
2018-04-29T03:27:58.070Z,1006.75
2018-04-29T03:28:58.026Z,1006.72
2018-04-29T03:29:57.983Z,1006.68
2018-04-29T03:30:57.938Z,1006.63
2018-04-29T03:31:57.893Z,1006.66
2018-04-29T03:32:57.849Z,1006.66
2018-04-29T03:33:57.805Z,1006.64
2018-04-29T03:34:57.761Z,1006.68
2018-04-29T03:35:57.717Z,1006.67
2018-04-29T03:36:57.673Z,1006.65
2018-04-29T03:37:57.629Z,1006.61
2018-04-29T03:38:57.590Z,1006.68
2018-04-29T03:39:57.539Z,1006.70
2018-04-29T03:40:57.495Z,1006.71
2018-04-29T03:41:57.452Z,1006.72
2018-04-29T03:42:57.412Z,1006.67
2018-04-29T03:43:57.362Z,1006.68
2018-04-29T03:44:57.318Z,1006.67
2018-04-29T03:45:57.274Z,1006.69
2018-04-29T03:46:57.229Z,1006.71
2018-04-29T03:47:57.198Z,1006.70
2018-04-29T03:48:57.142Z,1006.73
2018-04-29T03:49:57.096Z,1006.72
2018-04-29T03:50:57.055Z,1006.79
2018-04-29T03:51:57.010Z,1006.80
2018-04-29T03:52:57.015Z,1006.82
2018-04-29T03:53:56.919Z,1006.86
2018-04-29T03:54:56.875Z,1006.87
2018-04-29T03:55:56.958Z,1006.89
2018-04-29T03:56:56.785Z,1006.90
2018-04-29T03:57:56.746Z,1006.93
2018-04-29T03:58:56.698Z,1006.92
2018-04-29T03:59:56.652Z,1006.95
2018-04-29T04:00:56.608Z,1006.98
2018-04-29T04:01:56.564Z,1006.96
2018-04-29T04:02:56.519Z,1007.03
2018-04-29T04:03:56.474Z,1007.04
2018-04-29T04:04:56.431Z,1007.03
2018-04-29T04:05:56.386Z,1007.03
2018-04-29T04:06:56.342Z,1007.01
2018-04-29T04:07:56.296Z,1007.03
2018-04-29T04:08:56.259Z,1007.01
2018-04-29T04:09:56.208Z,1007.03
2018-04-29T04:10:56.164Z,1007.01
2018-04-29T04:11:56.120Z,1007.02
2018-04-29T04:12:56.075Z,1007.04
2018-04-29T04:13:56.032Z,1007.09
2018-04-29T04:14:55.987Z,1007.11
2018-04-29T04:15:55.942Z,1007.11
2018-04-29T04:16:55.898Z,1007.10
2018-04-29T04:17:55.854Z,1007.08
2018-04-29T04:18:55.814Z,1007.04
2018-04-29T04:19:55.765Z,1007.01
2018-04-29T04:20:55.720Z,1007.02
2018-04-29T04:21:55.677Z,1007.06
2018-04-29T04:22:55.633Z,1007.06
2018-04-29T04:23:55.593Z,1007.06
2018-04-29T04:24:55.543Z,1007.09
2018-04-29T04:25:55.500Z,1007.07
2018-04-29T04:26:55.456Z,1007.09
2018-04-29T04:27:55.411Z,1007.09
2018-04-29T04:28:55.369Z,1007.06
2018-04-29T04:29:55.324Z,1007.11
2018-04-29T04:30:55.283Z,1007.16
2018-04-29T04:31:55.234Z,1007.22
2018-04-29T04:32:55.191Z,1007.24
2018-04-29T04:33:55.147Z,1007.23
2018-04-29T04:34:55.104Z,1007.21
2018-04-29T04:35:55.058Z,1007.20
2018-04-29T04:36:55.020Z,1007.24
2018-04-29T04:37:54.971Z,1007.25
2018-04-29T04:38:54.927Z,1007.22
2018-04-29T04:39:54.883Z,1007.24
2018-04-29T04:40:54.839Z,1007.26
2018-04-29T04:41:54.796Z,1007.24
2018-04-29T04:42:54.752Z,1007.26
2018-04-29T04:43:54.710Z,1007.29
2018-04-29T04:44:54.663Z,1007.30
2018-04-29T04:45:54.619Z,1007.32
2018-04-29T04:46:54.576Z,1007.35
2018-04-29T04:47:54.531Z,1007.38
2018-04-29T04:48:54.488Z,1007.39
2018-04-29T04:49:54.444Z,1007.47
2018-04-29T04:50:54.400Z,1007.49
2018-04-29T04:51:54.355Z,1007.53
2018-04-29T04:52:54.314Z,1007.52
2018-04-29T04:53:54.272Z,1007.48
2018-04-29T04:54:54.231Z,1007.50
2018-04-29T04:55:54.181Z,1007.53
2018-04-29T04:56:54.137Z,1007.55
2018-04-29T04:57:54.093Z,1007.51
2018-04-29T04:58:54.050Z,1007.53
2018-04-29T04:59:54.005Z,1007.54
2018-04-29T05:00:53.962Z,1007.54
2018-04-29T05:01:53.919Z,1007.54
2018-04-29T05:02:53.875Z,1007.55
2018-04-29T05:03:53.832Z,1007.56
2018-04-29T05:04:53.787Z,1007.59
2018-04-29T05:05:53.744Z,1007.61
2018-04-29T05:06:53.701Z,1007.64
2018-04-29T05:07:53.656Z,1007.66
2018-04-29T05:08:53.619Z,1007.66
2018-04-29T05:09:53.569Z,1007.69
2018-04-29T05:10:53.526Z,1007.70
2018-04-29T05:11:53.481Z,1007.73
2018-04-29T05:12:53.438Z,1007.72
2018-04-29T05:13:53.394Z,1007.71
2018-04-29T05:14:53.357Z,1007.72
2018-04-29T05:15:53.307Z,1007.75
2018-04-29T05:16:53.264Z,1007.78
2018-04-29T05:17:53.220Z,1007.79
2018-04-29T05:18:53.179Z,1007.83
2018-04-29T05:19:53.133Z,1007.75
2018-04-29T05:20:53.091Z,1007.81
2018-04-29T05:21:53.046Z,1007.80
2018-04-29T05:22:53.003Z,1008.00
2018-04-29T05:23:52.960Z,1008.28
2018-04-29T05:24:52.917Z,1008.54
2018-04-29T05:25:52.873Z,1008.55
2018-04-29T05:26:52.831Z,1008.62
2018-04-29T05:27:52.787Z,1008.65
2018-04-29T05:28:52.745Z,1008.58
2018-04-29T05:29:52.703Z,1008.63
2018-04-29T05:30:52.664Z,1008.68
2018-04-29T05:31:52.669Z,1008.68
2018-04-29T05:32:52.577Z,1008.73
2018-04-29T05:33:52.536Z,1008.74
2018-04-29T05:34:52.497Z,1008.78
2018-04-29T05:35:52.455Z,1008.66
2018-04-29T05:36:52.419Z,1008.68
2018-04-29T05:37:52.377Z,1008.38
2018-04-29T05:38:52.336Z,1008.44
2018-04-29T05:39:52.299Z,1008.53
2018-04-29T05:40:52.258Z,1008.78
2018-04-29T05:41:52.220Z,1008.49
2018-04-29T05:42:52.182Z,1008.57
2018-04-29T05:43:52.145Z,1008.47
2018-04-29T05:44:52.106Z,1008.50
2018-04-29T05:45:52.069Z,1008.66
2018-04-29T05:46:52.031Z,1008.63
2018-04-29T05:47:51.994Z,1008.50
2018-04-29T05:48:51.964Z,1008.66
2018-04-29T05:49:51.923Z,1008.84
2018-04-29T05:50:51.885Z,1008.89
2018-04-29T05:51:51.849Z,1008.71
2018-04-29T05:52:51.813Z,1008.29
2018-04-29T05:53:51.778Z,1007.87
2018-04-29T05:54:51.743Z,1007.95
2018-04-29T05:55:51.707Z,1007.91
2018-04-29T05:56:51.675Z,1007.90
2018-04-29T05:57:51.641Z,1007.87
2018-04-29T05:58:51.603Z,1007.86
2018-04-29T05:59:51.567Z,1007.82
2018-04-29T06:00:51.533Z,1007.82
2018-04-29T06:01:51.500Z,1007.82
2018-04-29T06:02:51.466Z,1007.80
2018-04-29T06:03:51.431Z,1007.75
2018-04-29T06:04:51.398Z,1007.70
2018-04-29T06:05:51.364Z,1007.67
2018-04-29T06:06:51.581Z,1007.77
2018-04-29T06:07:51.297Z,1007.78
2018-04-29T06:08:51.263Z,1007.79
2018-04-29T06:09:51.236Z,1007.81
2018-04-29T06:10:51.197Z,1007.83
2018-04-29T06:11:51.162Z,1007.78
2018-04-29T06:12:51.129Z,1007.87
2018-04-29T06:13:51.096Z,1007.75
2018-04-29T06:14:51.063Z,1007.71
2018-04-29T06:15:51.029Z,1007.73
2018-04-29T06:16:50.996Z,1007.70
2018-04-29T06:17:50.968Z,1007.76
2018-04-29T06:18:50.930Z,1007.82
2018-04-29T06:19:50.895Z,1007.92
2018-04-29T06:20:50.862Z,1007.94
2018-04-29T06:21:50.829Z,1007.96
2018-04-29T06:22:50.796Z,1008.04
2018-04-29T06:23:50.761Z,1008.08
2018-04-29T06:24:50.728Z,1008.12
2018-04-29T06:25:50.696Z,1008.13
2018-04-29T06:26:50.666Z,1008.07
2018-04-29T06:27:50.629Z,1008.10
2018-04-29T06:28:50.597Z,1008.02
2018-04-29T06:29:50.564Z,1008.04
2018-04-29T06:30:50.531Z,1008.09
2018-04-29T06:31:50.563Z,1008.13
2018-04-29T06:32:50.466Z,1007.99
2018-04-29T06:33:50.434Z,1007.74
2018-04-29T06:34:50.403Z,1007.60
2018-04-29T06:35:50.370Z,1007.95
2018-04-29T06:36:50.339Z,1007.71
2018-04-29T06:37:50.307Z,1007.75
2018-04-29T06:38:50.321Z,1007.86
2018-04-29T06:39:50.243Z,1007.90
2018-04-29T06:40:50.212Z,1008.10
2018-04-29T06:41:50.180Z,1008.05
2018-04-29T06:42:50.147Z,1007.87
2018-04-29T06:43:50.115Z,1007.94
2018-04-29T06:44:50.082Z,1007.96
2018-04-29T06:45:50.053Z,1008.04
2018-04-29T06:46:50.057Z,1008.17
2018-04-29T06:47:49.984Z,1008.17
2018-04-29T06:48:49.955Z,1008.05
2018-04-29T06:49:49.921Z,1007.82
2018-04-29T06:50:49.886Z,1007.82
2018-04-29T06:51:49.852Z,1007.90
2018-04-29T06:52:49.819Z,1007.96
2018-04-29T06:53:49.786Z,1008.48
2018-04-29T06:54:49.754Z,1008.34
2018-04-29T06:55:49.719Z,1008.45
2018-04-29T06:56:49.690Z,1008.45
2018-04-29T06:57:49.653Z,1008.40
2018-04-29T06:58:49.620Z,1008.41
2018-04-29T06:59:49.588Z,1008.13
2018-04-29T07:00:49.632Z,1007.98
2018-04-29T07:01:49.522Z,1008.11
2018-04-29T07:02:49.490Z,1007.92
2018-04-29T07:03:49.456Z,1007.88
2018-04-29T07:04:49.424Z,1007.84
2018-04-29T07:05:49.390Z,1007.76
2018-04-29T07:06:49.360Z,1007.77
2018-04-29T07:07:49.323Z,1007.76
2018-04-29T07:08:49.290Z,1007.84
2018-04-29T07:09:49.256Z,1007.80
2018-04-29T07:10:49.222Z,1007.81
2018-04-29T07:11:49.188Z,1007.80
2018-04-29T07:12:49.153Z,1007.80
2018-04-29T07:13:49.119Z,1007.79
2018-04-29T07:14:49.084Z,1007.81
2018-04-29T07:15:49.048Z,1007.80
2018-04-29T07:16:49.013Z,1007.78
2018-04-29T07:17:48.976Z,1007.77
2018-04-29T07:18:48.972Z,1007.81
2018-04-29T07:19:48.905Z,1007.90
2018-04-29T07:20:48.869Z,1007.92
2018-04-29T07:21:48.832Z,1007.94
2018-04-29T07:22:48.796Z,1007.95
2018-04-29T07:23:48.757Z,1007.98
2018-04-29T07:24:48.720Z,1008.00
2018-04-29T07:25:48.683Z,1008.02
2018-04-29T07:26:48.647Z,1008.03
2018-04-29T07:27:48.607Z,1008.02
2018-04-29T07:28:48.570Z,1008.09
2018-04-29T07:29:48.533Z,1008.01
2018-04-29T07:30:48.496Z,1007.97
2018-04-29T07:31:48.457Z,1007.90
2018-04-29T07:32:48.420Z,1007.93
2018-04-29T07:33:48.382Z,1007.93
2018-04-29T07:34:48.345Z,1007.94
2018-04-29T07:35:48.306Z,1007.95
2018-04-29T07:36:48.268Z,1007.94
2018-04-29T07:37:48.230Z,1007.98
2018-04-29T07:38:48.194Z,1008.09
2018-04-29T07:39:48.216Z,1008.15
2018-04-29T07:40:48.117Z,1008.17
2018-04-29T07:41:48.079Z,1008.21
2018-04-29T07:42:48.042Z,1008.20
2018-04-29T07:43:48.003Z,1008.21
2018-04-29T07:44:47.966Z,1008.15
2018-04-29T07:45:47.929Z,1008.15
2018-04-29T07:46:47.893Z,1008.08
2018-04-29T07:47:47.854Z,1008.12
2018-04-29T07:48:47.817Z,1008.07
2018-04-29T07:49:47.780Z,1008.16
2018-04-29T07:50:47.743Z,1008.19
2018-04-29T07:51:47.706Z,1008.00
2018-04-29T07:52:47.669Z,1007.95
2018-04-29T07:53:47.633Z,1007.84
2018-04-29T07:54:47.597Z,1007.86
2018-04-29T07:55:47.564Z,1008.35
2018-04-29T07:56:47.524Z,1008.01
2018-04-29T07:57:47.493Z,1008.10
2018-04-29T07:58:47.454Z,1008.32
2018-04-29T07:59:47.417Z,1008.29
2018-04-29T08:00:47.404Z,1008.11
2018-04-29T08:01:47.353Z,1008.11
2018-04-29T08:02:47.315Z,1008.06
2018-04-29T08:03:47.282Z,1008.04
2018-04-29T08:04:47.247Z,1008.06
2018-04-29T08:05:47.214Z,1007.91
2018-04-29T08:06:47.298Z,1007.81
2018-04-29T08:07:47.151Z,1007.76
2018-04-29T08:08:47.115Z,1007.77
2018-04-29T08:09:47.083Z,1007.74
2018-04-29T08:10:47.051Z,1007.75
2018-04-29T08:11:47.018Z,1007.72
2018-04-29T08:12:46.985Z,1007.78
2018-04-29T08:13:46.953Z,1007.71
2018-04-29T08:14:46.920Z,1007.66
2018-04-29T08:15:46.902Z,1007.62
2018-04-29T08:16:46.857Z,1007.60
2018-04-29T08:17:46.820Z,1007.56
2018-04-29T08:18:46.786Z,1007.58
2018-04-29T08:19:46.752Z,1007.61
2018-04-29T08:20:46.718Z,1007.64
2018-04-29T08:21:46.684Z,1007.69
2018-04-29T08:22:46.686Z,1007.77
2018-04-29T08:23:46.615Z,1007.81
2018-04-29T08:24:46.579Z,1007.84
2018-04-29T08:25:46.545Z,1007.89
2018-04-29T08:26:46.514Z,1007.87
2018-04-29T08:27:46.475Z,1007.92
2018-04-29T08:28:46.439Z,1007.90
2018-04-29T08:29:46.454Z,1007.92
2018-04-29T08:30:46.369Z,1007.79
2018-04-29T08:31:46.332Z,1007.66
2018-04-29T08:32:46.297Z,1007.48
2018-04-29T08:33:46.262Z,1007.28
2018-04-29T08:34:46.225Z,1007.17
2018-04-29T08:35:46.188Z,1007.18
2018-04-29T08:36:46.152Z,1007.11
2018-04-29T08:37:46.115Z,1007.14
2018-04-29T08:38:46.079Z,1007.13
2018-04-29T08:39:46.041Z,1007.10
2018-04-29T08:40:46.004Z,1007.19
2018-04-29T08:41:45.981Z,1007.18
2018-04-29T08:42:45.930Z,1007.17
2018-04-29T08:43:45.893Z,1007.25
2018-04-29T08:44:45.852Z,1007.29
2018-04-29T08:45:45.815Z,1007.84
2018-04-29T08:46:45.778Z,1007.83
2018-04-29T08:47:45.739Z,1007.49
2018-04-29T08:48:45.704Z,1007.43
2018-04-29T08:49:45.667Z,1007.71
2018-04-29T08:50:45.628Z,1007.47
2018-04-29T08:51:45.588Z,1007.42
2018-04-29T08:52:45.551Z,1007.73
2018-04-29T08:53:45.516Z,1007.39
2018-04-29T08:54:45.477Z,1007.37
2018-04-29T08:55:45.440Z,1007.33
2018-04-29T08:56:45.404Z,1007.28
2018-04-29T08:57:45.367Z,1007.38
2018-04-29T08:58:45.331Z,1007.48
2018-04-29T08:59:45.295Z,1007.73
2018-04-29T09:00:45.257Z,1007.73
2018-04-29T09:01:45.222Z,1007.60
2018-04-29T09:02:45.187Z,1007.43
2018-04-29T09:03:45.184Z,1007.32
2018-04-29T09:04:45.125Z,1007.32
2018-04-29T09:05:45.091Z,1007.26
2018-04-29T09:06:45.054Z,1007.30
2018-04-29T09:07:45.022Z,1007.18
2018-04-29T09:08:44.997Z,1007.14
2018-04-29T09:09:44.959Z,1007.17
2018-04-29T09:10:44.928Z,1007.07
2018-04-29T09:11:44.900Z,1007.10
2018-04-29T09:12:44.869Z,1007.11
2018-04-29T09:13:44.839Z,1007.13
2018-04-29T09:14:44.815Z,1007.12
2018-04-29T09:15:44.782Z,1007.13
2018-04-29T09:16:44.755Z,1007.08
2018-04-29T09:17:44.726Z,1007.05
2018-04-29T09:18:44.699Z,1007.05
2018-04-29T09:19:44.671Z,1007.07
2018-04-29T09:20:44.644Z,1007.05
2018-04-29T09:21:44.617Z,1007.07
2018-04-29T09:22:44.597Z,1007.03
2018-04-29T09:23:44.564Z,1007.11
2018-04-29T09:24:44.537Z,1007.05
2018-04-29T09:25:44.511Z,1007.04
2018-04-29T09:26:44.485Z,1007.08
2018-04-29T09:27:44.458Z,1007.07
2018-04-29T09:28:44.435Z,1007.01
2018-04-29T09:29:44.409Z,1007.05
2018-04-29T09:30:44.380Z,1007.05
2018-04-29T09:31:44.354Z,1007.06
2018-04-29T09:32:44.329Z,1007.07
2018-04-29T09:33:44.301Z,1007.05
2018-04-29T09:34:44.279Z,1007.04
2018-04-29T09:35:44.248Z,1007.03
2018-04-29T09:36:44.221Z,1007.05
2018-04-29T09:37:44.195Z,1007.08
2018-04-29T09:38:44.169Z,1006.99
2018-04-29T09:39:44.142Z,1007.03
2018-04-29T09:40:44.214Z,1007.02
2018-04-29T09:41:44.093Z,1007.08
2018-04-29T09:42:44.060Z,1007.03
2018-04-29T09:43:44.154Z,1006.88
2018-04-29T09:44:44.006Z,1006.87
2018-04-29T09:45:43.978Z,1006.88
2018-04-29T09:46:43.950Z,1006.94
2018-04-29T09:47:43.923Z,1006.97
2018-04-29T09:48:43.895Z,1007.01
2018-04-29T09:49:43.863Z,1007.09
2018-04-29T09:50:43.834Z,1007.08
2018-04-29T09:51:43.802Z,1007.07
2018-04-29T09:52:43.772Z,1007.06
2018-04-29T09:53:43.741Z,1007.09
2018-04-29T09:54:43.710Z,1007.03
2018-04-29T09:55:43.677Z,1007.03
2018-04-29T09:56:43.644Z,1007.09
2018-04-29T09:57:43.612Z,1007.12
2018-04-29T09:58:43.580Z,1007.05
2018-04-29T09:59:43.546Z,1007.06
2018-04-29T10:00:43.512Z,1007.04
2018-04-29T10:01:43.480Z,1007.06
2018-04-29T10:02:43.445Z,1007.01
2018-04-29T10:03:43.410Z,1007.05
2018-04-29T10:04:43.375Z,1007.04
2018-04-29T10:05:43.341Z,1007.04
2018-04-29T10:06:43.307Z,1007.11
2018-04-29T10:07:43.271Z,1007.07
2018-04-29T10:08:43.236Z,1007.03
2018-04-29T10:09:43.200Z,1007.06
2018-04-29T10:10:43.168Z,1007.02
2018-04-29T10:11:43.128Z,1007.04
2018-04-29T10:12:43.149Z,1007.00
2018-04-29T10:13:43.057Z,1006.98
2018-04-29T10:14:43.020Z,1007.00
2018-04-29T10:15:42.982Z,1007.00
2018-04-29T10:16:42.946Z,1006.97
2018-04-29T10:17:42.909Z,1006.93
2018-04-29T10:18:42.921Z,1006.95
2018-04-29T10:19:42.834Z,1006.88
2018-04-29T10:20:42.797Z,1006.83
2018-04-29T10:21:42.759Z,1006.86
2018-04-29T10:22:42.722Z,1006.85
2018-04-29T10:23:42.734Z,1006.85
2018-04-29T10:24:42.671Z,1006.86
2018-04-29T10:25:42.609Z,1006.86
2018-04-29T10:26:42.573Z,1006.88
2018-04-29T10:27:42.533Z,1006.83
2018-04-29T10:28:42.497Z,1006.84
2018-04-29T10:29:42.458Z,1006.82
2018-04-29T10:30:42.420Z,1006.79
2018-04-29T10:31:42.384Z,1006.81
2018-04-29T10:32:42.387Z,1006.80
2018-04-29T10:33:42.305Z,1006.77
2018-04-29T10:34:42.268Z,1006.79
2018-04-29T10:35:42.228Z,1006.76
2018-04-29T10:36:42.190Z,1006.70
2018-04-29T10:37:42.152Z,1006.78
2018-04-29T10:38:42.120Z,1006.73
2018-04-29T10:39:42.081Z,1006.73
2018-04-29T10:40:42.037Z,1006.76
2018-04-29T10:41:42.007Z,1006.76
2018-04-29T10:42:41.961Z,1006.70
2018-04-29T10:43:41.921Z,1006.72
2018-04-29T10:44:41.882Z,1006.73
2018-04-29T10:45:41.844Z,1006.72
2018-04-29T10:46:41.808Z,1006.69
2018-04-29T10:47:41.765Z,1006.74
2018-04-29T10:48:41.727Z,1006.73
2018-04-29T10:49:41.688Z,1006.68
2018-04-29T10:50:41.650Z,1006.70
2018-04-29T10:51:41.610Z,1006.69
2018-04-29T10:52:41.573Z,1006.71
2018-04-29T10:53:41.533Z,1006.64
2018-04-29T10:54:41.495Z,1006.62
2018-04-29T10:55:41.454Z,1006.72
2018-04-29T10:56:41.494Z,1006.59
2018-04-29T10:57:41.377Z,1006.62
2018-04-29T10:58:41.418Z,1006.56
2018-04-29T10:59:41.298Z,1006.62
2018-04-29T11:00:41.260Z,1006.61
2018-04-29T11:01:41.221Z,1006.57
2018-04-29T11:02:41.182Z,1006.51
2018-04-29T11:03:41.142Z,1006.48
2018-04-29T11:04:41.104Z,1006.55
2018-04-29T11:05:41.065Z,1006.45
2018-04-29T11:06:41.026Z,1006.43
2018-04-29T11:07:40.986Z,1006.45
2018-04-29T11:08:40.948Z,1006.48
2018-04-29T11:09:40.908Z,1006.55
2018-04-29T11:10:40.869Z,1006.50
2018-04-29T11:11:40.871Z,1006.54
2018-04-29T11:12:40.792Z,1006.52
2018-04-29T11:13:40.751Z,1006.54
2018-04-29T11:14:40.713Z,1006.51
2018-04-29T11:15:40.673Z,1006.46
2018-04-29T11:16:40.633Z,1006.46
2018-04-29T11:17:40.595Z,1006.51
2018-04-29T11:18:40.555Z,1006.47
2018-04-29T11:19:40.518Z,1006.42
2018-04-29T11:20:40.477Z,1006.47
2018-04-29T11:21:40.438Z,1006.41
2018-04-29T11:22:40.398Z,1006.40
2018-04-29T11:23:40.363Z,1006.44
2018-04-29T11:24:40.330Z,1006.49
2018-04-29T11:25:40.281Z,1006.48
2018-04-29T11:26:40.241Z,1006.45
2018-04-29T11:27:40.201Z,1006.44
2018-04-29T11:28:40.217Z,1006.37
2018-04-29T11:29:40.126Z,1006.38
2018-04-29T11:30:40.084Z,1006.39
2018-04-29T11:31:40.043Z,1006.39
2018-04-29T11:32:40.004Z,1006.34
2018-04-29T11:33:39.964Z,1006.34
2018-04-29T11:34:39.925Z,1006.33
2018-04-29T11:35:39.885Z,1006.34
2018-04-29T11:36:39.846Z,1006.32
2018-04-29T11:37:39.807Z,1006.29
2018-04-29T11:38:39.768Z,1006.24
2018-04-29T11:39:39.728Z,1006.24
2018-04-29T11:40:39.710Z,1006.27
2018-04-29T11:41:39.650Z,1006.30
2018-04-29T11:42:39.612Z,1006.30
2018-04-29T11:43:39.570Z,1006.22
2018-04-29T11:44:39.534Z,1006.28
2018-04-29T11:45:39.493Z,1006.29
2018-04-29T11:46:39.465Z,1006.26
2018-04-29T11:47:39.420Z,1006.31
2018-04-29T11:48:39.375Z,1006.27
2018-04-29T11:49:39.337Z,1006.23
2018-04-29T11:50:39.296Z,1006.22
2018-04-29T11:51:39.256Z,1006.29
2018-04-29T11:52:39.217Z,1006.27
2018-04-29T11:53:39.178Z,1006.23
2018-04-29T11:54:39.139Z,1006.26
2018-04-29T11:55:39.099Z,1006.21
2018-04-29T11:56:39.060Z,1006.22
2018-04-29T11:57:39.020Z,1006.21
2018-04-29T11:58:38.982Z,1006.18
2018-04-29T11:59:38.942Z,1006.13
2018-04-29T12:00:38.907Z,1006.13
2018-04-29T12:01:38.863Z,1006.11
2018-04-29T12:02:38.906Z,1006.12
2018-04-29T12:03:38.784Z,1006.09
2018-04-29T12:04:38.744Z,1006.10